Time;durP1;ratioP1;P1;durP2;ratioP2;P2;SDS_P1;SDS_P2;PMS_P1;PMS_P2;Temp;Humidity;BMP_temperature;BMP_pressure;BME280_temperature;BME280_humidity;BME280_pressure;Samples;Min_cycle;Max_cycle;Signal;HPM_P1;HPM_P2
2022/11/03 00:01:09;;;;;;;25.90;11.43;;;;;;;5.71;91.50;99570.62;2171133;81;21066;-85
2022/11/03 00:04:09;;;;;;;25.50;10.83;;;;;;;5.67;91.74;99572.61;2170402;81;20921;-85
2022/11/03 00:07:10;;;;;;;17.60;10.17;;;;;;;5.63;91.57;99576.77;2171168;81;20897;-85
2022/11/03 00:10:10;;;;;;;108.73;17.93;;;;;;;5.57;91.19;99576.52;2171175;81;20977;-86
2022/11/03 00:13:11;;;;;;;25.57;10.87;;;;;;;5.51;91.28;99580.13;2170903;81;20953;-85
2022/11/03 00:16:11;;;;;;;740.87;69.73;;;;;;;5.49;91.77;99583.06;2171506;81;20973;-82
2022/11/03 00:19:13;;;;;;;44.87;12.10;;;;;;;5.50;92.35;99574.48;2171400;81;21017;-84
2022/11/03 00:22:12;;;;;;;51.93;13.03;;;;;;;5.49;91.94;99577.00;2171357;81;20933;-84
2022/11/03 00:25:12;;;;;;;27.17;10.33;;;;;;;5.49;91.94;99577.00;2170547;81;20964;-84
2022/11/03 00:28:13;;;;;;;25.37;10.93;;;;;;;5.48;91.73;99573.52;2172270;81;21317;-84
2022/11/03 00:31:13;;;;;;;20.83;10.50;;;;;;;5.48;91.89;99574.82;2170044;82;20960;-84
2022/11/03 00:34:13;;;;;;;24.67;11.03;;;;;;;5.50;92.10;99574.89;2169048;82;20964;-84
2022/11/03 00:37:14;;;;;;;20.70;9.60;;;;;;;5.52;93.24;99575.43;2170518;82;20972;-84
2022/11/03 00:40:14;;;;;;;21.67;11.23;;;;;;;5.56;93.55;99573.45;2169843;81;21479;-84
2022/11/03 00:43:15;;;;;;;17.63;10.43;;;;;;;5.57;93.72;99576.92;2170493;81;20997;-83
2022/11/03 00:46:15;;;;;;;68.67;13.57;;;;;;;5.58;93.88;99577.40;2168592;81;21040;-84
2022/11/03 00:49:15;;;;;;;17.50;10.37;;;;;;;5.61;94.09;99578.83;2171163;81;20921;-84
2022/11/03 00:52:19;;;;;;;26.90;11.20;;;;;;;5.68;95.29;99573.97;2171235;81;20930;-84
2022/11/03 00:55:19;;;;;;;26.57;11.37;;;;;;;5.72;94.10;99573.69;2170398;82;20933;-85
2022/11/03 00:58:20;;;;;;;24.70;11.70;;;;;;;5.73;94.25;99576.34;2170306;81;20926;-85
2022/11/03 01:01:20;;;;;;;20.33;11.37;;;;;;;5.77;95.02;99574.77;2171062;81;20953;-85
2022/11/03 01:07:39;;;;;;;29.57;11.93;;;;;;;5.67;94.46;99579.09;2171077;82;20934;-84
2022/11/03 01:11:42;;;;;;;16.07;9.47;;;;;;;5.66;94.99;99579.50;2169753;81;20997;-84
2022/11/03 01:13:40;;;;;;;17.90;10.23;;;;;;;5.59;93.88;99583.94;2170042;81;20997;-83
2022/11/03 01:16:41;;;;;;;25.60;10.17;;;;;;;5.51;93.99;99576.25;2170981;81;20937;-84
2022/11/03 01:19:41;;;;;;;16.60;10.30;;;;;;;5.46;93.84;99579.05;2170945;81;20930;-83
2022/11/03 01:22:42;;;;;;;28.00;11.83;;;;;;;5.38;93.41;99581.71;2169860;82;20961;-84
2022/11/03 01:25:42;;;;;;;97.67;14.23;;;;;;;5.35;94.33;99584.17;2169911;81;21320;-84
2022/11/03 01:28:42;;;;;;;52.20;12.67;;;;;;;5.39;94.56;99586.07;2170973;81;20894;-84
2022/11/03 01:31:43;;;;;;;33.27;11.90;;;;;;;5.36;94.03;99588.53;2170885;81;20972;-83
2022/11/03 01:34:43;;;;;;;22.23;10.27;;;;;;;5.34;94.65;99590.16;2170202;81;21012;-84
2022/11/03 01:37:43;;;;;;;19.37;10.90;;;;;;;5.34;94.22;99583.69;2172065;81;20993;-84
2022/11/03 01:40:44;;;;;;;90.60;16.93;;;;;;;5.34;94.32;99584.98;2171812;81;21000;-84
2022/11/03 01:43:44;;;;;;;31.13;12.83;;;;;;;5.34;95.01;99583.28;2173126;81;20973;-83
2022/11/03 01:46:45;;;;;;;50.80;14.27;;;;;;;5.33;95.02;99584.51;2170185;81;20918;-85
2022/11/03 01:49:45;;;;;;;43.77;14.60;;;;;;;5.38;95.90;99580.42;2171043;81;20921;-84
2022/11/03 01:52:46;;;;;;;41.27;15.60;;;;;;;5.43;95.99;99581.50;2169941;81;20902;-84
2022/11/03 01:55:46;;;;;;;39.47;15.90;;;;;;;5.49;96.41;99577.00;2170973;81;20965;-84
2022/11/03 01:58:48;;;;;;;51.63;15.10;;;;;;;5.57;97.20;99566.16;2173315;81;20957;-83
2022/11/03 02:01:47;;;;;;;29.43;14.53;;;;;;;5.64;97.11;99567.30;2171962;81;20968;-84
2022/11/03 02:04:47;;;;;;;34.03;14.23;;;;;;;5.69;97.82;99574.45;2171949;81;20993;-84
2022/11/03 02:07:48;;;;;;;30.10;14.70;;;;;;;5.77;98.12;99577.36;2170233;81;20929;-84
2022/11/03 02:10:48;;;;;;;28.07;13.97;;;;;;;5.83;97.83;99576.73;2170971;81;20977;-85
2022/11/03 02:13:48;;;;;;;24.00;13.77;;;;;;;5.83;98.00;99581.92;2169993;81;21040;-83
2022/11/03 02:16:49;;;;;;;31.00;15.17;;;;;;;5.86;98.03;99579.45;2171495;81;20937;-85
2022/11/03 02:19:49;;;;;;;29.03;14.37;;;;;;;5.88;98.46;99584.29;2171181;81;20933;-85
2022/11/03 02:22:50;;;;;;;23.47;13.10;;;;;;;5.92;98.15;99578.04;2170654;81;20980;-84
2022/11/03 02:25:50;;;;;;;28.40;13.63;;;;;;;5.93;97.19;99572.45;2171026;81;20973;-84
2022/11/03 02:28:50;;;;;;;39.13;14.43;;;;;;;5.68;95.78;99573.97;2170040;81;20969;-84
2022/11/03 02:31:51;;;;;;;37.70;14.93;;;;;;;5.68;95.78;99573.97;2170401;81;20922;-85
2022/11/03 02:34:51;;;;;;;31.83;13.77;;;;;;;5.63;96.25;99589.73;2171621;81;20921;-84
2022/11/03 02:37:52;;;;;;;29.07;13.07;;;;;;;5.64;96.75;99588.02;2171534;81;20921;-85
2022/11/03 02:40:52;;;;;;;32.97;13.07;;;;;;;5.66;96.90;99592.45;2171292;82;20993;-85
2022/11/03 02:43:52;;;;;;;34.87;14.70;;;;;;;5.65;97.12;99591.97;2171477;81;20929;-85
2022/11/03 02:46:53;;;;;;;25.03;13.57;;;;;;;5.64;96.89;99599.27;2170390;81;21332;-85
2022/11/03 02:49:53;;;;;;;23.03;13.20;;;;;;;5.59;95.86;99594.70;2170773;81;21356;-85
2022/11/03 02:52:54;;;;;;;23.97;11.97;;;;;;;5.53;96.85;99595.33;2172389;81;21380;-85
2022/11/03 02:55:54;;;;;;;468.97;44.47;;;;;;;5.50;95.83;99596.90;2171636;81;20917;-81
2022/11/03 02:58:54;;;;;;;38.03;12.53;;;;;;;5.43;95.76;99590.16;2170374;81;20960;-85
2022/11/03 03:01:55;;;;;;;27.70;12.70;;;;;;;5.35;95.38;99582.87;2171542;81;21897;-85
2022/11/03 03:04:55;;;;;;;33.67;12.17;;;;;;;5.24;94.71;99587.98;2170898;81;20937;-85
2022/11/03 03:07:56;;;;;;;33.03;9.90;;;;;;;5.09;94.16;99587.73;2171511;81;20973;-85
2022/11/03 03:10:56;;;;;;;15.77;10.10;;;;;;;4.97;93.83;99584.59;2170853;81;21364;-84
2022/11/03 03:13:56;;;;;;;20.77;10.63;;;;;;;4.87;93.98;99584.11;2170969;80;20985;-85
2022/11/03 03:16:57;;;;;;;12.43;9.33;;;;;;;4.78;94.08;99594.51;2172405;81;20921;-85
2022/11/03 03:19:58;;;;;;;17.33;10.57;;;;;;;4.70;94.12;99587.20;2173073;81;20978;-86
2022/11/03 03:22:58;;;;;;;14.27;9.73;;;;;;;4.62;94.43;99590.73;2171193;81;20945;-85
2022/11/03 03:25:58;;;;;;;14.97;9.50;;;;;;;4.60;94.16;99595.35;2170180;81;20937;-85
2022/11/03 03:28:59;;;;;;;24.50;10.20;;;;;;;4.58;94.55;99594.39;2172136;81;20985;-81
2022/11/03 03:31:59;;;;;;;41.50;12.43;;;;;;;4.50;93.72;99594.44;2172414;81;20950;-84
2022/11/03 03:34:59;;;;;;;15.37;10.27;;;;;;;4.48;94.05;99601.72;2170227;81;20893;-85
2022/11/03 03:38:00;;;;;;;20.37;10.43;;;;;;;4.45;93.67;99595.51;2170387;81;20974;-84
2022/11/03 03:41:01;;;;;;;24.67;10.70;;;;;;;4.41;93.85;99594.48;2171144;81;20988;-85
2022/11/03 03:44:00;;;;;;;70.57;12.87;;;;;;;4.36;93.48;99593.38;2170353;81;20992;-85
2022/11/03 03:47:01;;;;;;;18.23;10.33;;;;;;;4.27;93.26;99594.19;2172050;82;20950;-85
2022/11/03 03:50:01;;;;;;;17.60;9.93;;;;;;;4.17;92.74;99590.67;2170164;81;21281;-85
2022/11/03 03:53:02;;;;;;;12.67;8.73;;;;;;;4.06;92.60;99599.20;2171849;81;20934;-85
2022/11/03 03:56:04;;;;;;;18.13;9.80;;;;;;;4.01;92.81;99602.36;2171523;81;20941;-85
2022/11/03 03:59:03;;;;;;;28.80;10.87;;;;;;;3.95;93.07;99599.07;2170785;81;21001;-85
2022/11/03 04:02:03;;;;;;;76.67;14.77;;;;;;;3.92;93.16;99599.32;2170640;81;20937;-86
2022/11/03 04:05:03;;;;;;;26.33;11.40;;;;;;;3.90;93.19;99602.23;2170421;81;20953;-85
2022/11/03 04:08:04;;;;;;;22.57;10.60;;;;;;;3.88;93.27;99602.56;2169824;81;21455;-84
2022/11/03 04:24:20;;;;;;;66.03;14.03;;;;;;;3.66;92.27;99599.30;2173438;82;21008;-85
2022/11/03 04:27:20;;;;;;;67.93;14.23;;;;;;;3.60;92.44;99599.88;2172814;82;20981;-84
2022/11/03 04:30:23;;;;;;;18.17;9.67;;;;;;;3.60;92.46;99597.30;2172631;81;20980;-86
2022/11/03 04:33:21;;;;;;;15.50;10.40;;;;;;;3.57;92.34;99596.25;2172637;81;20953;-85
2022/11/03 04:36:21;;;;;;;16.67;9.93;;;;;;;3.53;92.55;99599.08;2171613;81;21011;-84
2022/11/03 04:39:22;;;;;;;16.07;9.40;;;;;;;3.47;92.29;99597.07;2170866;82;21234;-85
2022/11/03 04:42:22;;;;;;;12.17;8.97;;;;;;;3.36;91.52;99589.14;2170710;81;21439;-85
2022/11/03 04:45:23;;;;;;;29.63;9.10;;;;;;;3.26;91.58;99596.33;2172040;81;20965;-84
2022/11/03 04:48:23;;;;;;;56.03;10.17;;;;;;;3.20;91.64;99598.18;2171139;81;21032;-85
2022/11/03 04:51:24;;;;;;;34.43;10.87;;;;;;;3.16;91.94;99603.98;2171408;81;20992;-81
2022/11/03 04:54:24;;;;;;;150.13;19.33;;;;;;;3.12;92.15;99597.78;2171141;81;21004;-82
2022/11/03 04:57:24;;;;;;;21.07;10.07;;;;;;;3.10;92.43;99596.81;2171136;81;21009;-84
2022/11/03 05:00:25;;;;;;;19.67;9.63;;;;;;;3.07;92.60;99586.33;2172323;81;20937;-84
2022/11/03 05:03:25;;;;;;;80.77;13.30;;;;;;;3.04;92.32;99588.75;2172358;82;21152;-85
2022/11/03 05:06:25;;;;;;;15.73;8.97;;;;;;;3.01;92.50;99580.84;2172269;82;21308;-84
2022/11/03 05:09:26;;;;;;;12.57;7.70;;;;;;;2.97;91.91;99582.78;2171361;81;20968;-84
2022/11/03 05:12:26;;;;;;;13.40;7.90;;;;;;;2.92;91.95;99580.76;2171160;81;21103;-82
2022/11/03 05:15:28;;;;;;;21.47;8.17;;;;;;;2.88;91.75;99582.28;2171240;81;21008;-80
2022/11/03 05:18:27;;;;;;;39.97;8.03;;;;;;;2.84;91.64;99583.81;2170582;81;21246;-80
2022/11/03 05:21:28;;;;;;;66.93;11.47;;;;;;;2.79;91.46;99580.50;2171239;81;20992;-84
2022/11/03 05:24:28;;;;;;;38.03;9.17;;;;;;;2.76;91.52;99586.78;2170926;82;20999;-82
2022/11/03 05:27:28;;;;;;;25.43;8.33;;;;;;;2.73;91.56;99584.92;2170916;81;20992;-83
2022/11/03 05:30:29;;;;;;;663.53;53.77;;;;;;;2.74;91.91;99585.81;2170788;81;20968;-81
2022/11/03 05:33:29;;;;;;;48.00;9.47;;;;;;;2.75;92.01;99594.03;2170383;81;21360;-83
2022/11/03 05:36:30;;;;;;;103.30;12.90;;;;;;;2.72;91.47;99587.42;2170039;81;20987;-83
2022/11/03 05:39:30;;;;;;;19.00;9.33;;;;;;;2.70;91.38;99592.89;2169859;82;21424;-85
2022/11/03 05:42:30;;;;;;;30.77;9.83;;;;;;;2.67;90.99;99591.44;2170077;81;21016;-84
2022/11/03 05:45:31;;;;;;;28.73;9.27;;;;;;;2.64;91.44;99593.85;2169911;81;20932;-83
2022/11/03 05:48:31;;;;;;;32.07;9.10;;;;;;;2.62;91.27;99587.72;2170221;81;20938;-83
2022/11/03 05:51:32;;;;;;;20.87;9.47;;;;;;;2.65;91.13;99598.20;2169567;81;21460;-84
2022/11/03 05:54:32;;;;;;;56.60;10.97;;;;;;;2.62;90.92;99598.92;2169345;81;21004;-85
2022/11/03 05:57:32;;;;;;;74.30;13.07;;;;;;;2.65;90.97;99602.06;2171795;81;20976;-84
2022/11/03 06:00:33;;;;;;;14.80;9.73;;;;;;;2.67;90.43;99604.33;2172776;81;20968;-84
2022/11/03 06:03:33;;;;;;;39.70;10.47;;;;;;;2.67;90.43;99604.33;2171291;81;21383;-84
2022/11/03 06:06:34;;;;;;;410.10;27.07;;;;;;;2.65;90.45;99604.25;2171639;81;21005;-83
2022/11/03 06:09:34;;;;;;;970.47;83.03;;;;;;;2.64;89.97;99607.63;2171794;81;20992;-84
2022/11/03 06:12:34;;;;;;;37.30;11.50;;;;;;;2.69;90.38;99606.59;2171619;81;21059;-84
2022/11/03 06:15:39;;;;;;;14.57;9.67;;;;;;;2.74;90.34;99608.62;2175531;81;21015;-84
2022/11/03 06:18:37;;;;;;;16.43;8.23;;;;;;;2.72;89.76;99610.63;2164151;82;20960;-84
2022/11/03 06:21:38;;;;;;;58.53;15.07;;;;;;;2.67;89.74;99615.93;2171280;81;21059;-85
2022/11/03 06:24:38;;;;;;;29.93;11.00;;;;;;;2.69;90.25;99611.34;2170206;81;21067;-83
2022/11/03 06:27:38;;;;;;;17.50;8.93;;;;;;;2.79;90.30;99615.31;2168367;81;21100;-85
2022/11/03 06:30:39;;;;;;;18.37;10.23;;;;;;;2.85;90.28;99622.09;2168558;81;20901;-83
2022/11/03 06:33:39;;;;;;;28.00;10.57;;;;;;;2.95;90.50;99625.66;2168366;81;20981;-84
2022/11/03 06:36:40;;;;;;;76.50;15.43;;;;;;;3.06;90.48;99625.83;2168522;81;20988;-84
2022/11/03 06:39:40;;;;;;;31.97;11.17;;;;;;;3.15;89.91;99617.29;2167348;81;20977;-84
2022/11/03 06:42:41;;;;;;;21.43;10.77;;;;;;;3.20;89.63;99617.53;2165932;81;21032;-85
2022/11/03 06:45:41;;;;;;;48.90;12.07;;;;;;;3.26;89.67;99611.81;2167540;81;21028;-85
2022/11/03 06:48:41;;;;;;;18.23;10.53;;;;;;;3.36;89.64;99617.94;2167074;81;20961;-84
2022/11/03 06:51:42;;;;;;;31.03;11.50;;;;;;;3.50;89.85;99618.28;2166456;81;20992;-85
2022/11/03 06:54:42;;;;;;;15.70;9.67;;;;;;;3.62;89.69;99620.20;2166336;81;20984;-83
2022/11/03 06:57:43;;;;;;;148.10;15.77;;;;;;;3.76;89.57;99620.50;2168335;81;20992;-84
2022/11/03 07:00:43;;;;;;;39.47;10.10;;;;;;;3.90;89.64;99616.44;2167007;81;20992;-86
2022/11/03 07:03:43;;;;;;;13.70;9.20;;;;;;;4.06;89.56;99613.41;2166901;81;20995;-83
2022/11/03 07:06:44;;;;;;;14.80;8.33;;;;;;;4.35;89.04;99603.23;2168128;81;20961;-83
2022/11/03 07:09:44;;;;;;;66.83;11.47;;;;;;;4.35;89.04;99603.23;2167387;81;21443;-84
2022/11/03 07:12:45;;;;;;;18.23;8.90;;;;;;;4.53;88.97;99601.93;2166003;81;21020;-81
2022/11/03 07:15:45;;;;;;;16.17;8.67;;;;;;;4.71;88.97;99601.91;2168321;81;21060;-83
2022/11/03 07:18:46;;;;;;;128.20;14.33;;;;;;;4.88;89.09;99600.99;2169988;81;20964;-84
2022/11/03 07:21:46;;;;;;;21.03;7.80;;;;;;;5.04;89.11;99596.11;2169918;81;21396;-81
2022/11/03 07:24:46;;;;;;;13.93;7.53;;;;;;;5.26;89.04;99594.11;2170381;81;21106;-82
2022/11/03 07:27:47;;;;;;;30.27;15.07;;;;;;;5.46;89.08;99590.70;2170092;82;20941;-83
2022/11/03 07:30:47;;;;;;;17.20;9.03;;;;;;;5.67;89.04;99594.22;2170401;81;20957;-82
2022/11/03 07:33:47;;;;;;;30.50;8.40;;;;;;;5.87;88.90;99591.59;2170583;82;21059;-85
2022/11/03 07:36:53;;;;;;;30.47;9.67;;;;;;;6.08;88.70;99591.67;2160242;82;21391;-84
2022/11/03 07:39:53;;;;;;;1999.90;306.47;;;;;;;6.24;89.16;99579.39;2170784;81;21031;-84
2022/11/03 07:42:54;;;;;;;81.73;11.77;;;;;;;6.43;88.86;99581.42;2170444;81;21012;-81
2022/11/03 07:45:54;;;;;;;17.90;7.77;;;;;;;6.59;88.65;99579.91;2170082;81;20953;-82
2022/11/03 07:48:55;;;;;;;19.17;7.07;;;;;;;6.74;88.67;99575.31;2170021;82;20964;-82
2022/11/03 07:51:55;;;;;;;13.17;7.40;;;;;;;6.88;88.96;99574.13;2170111;81;21016;-84
2022/11/03 07:54:58;;;;;;;17.20;7.33;;;;;;;7.07;88.62;99573.56;2170405;82;20968;-82
2022/11/03 07:57:59;;;;;;;51.23;9.50;;;;;;;7.28;89.05;99575.64;2169813;81;21448;-82
2022/11/03 08:01:00;;;;;;;12.30;7.60;;;;;;;7.57;89.81;99574.09;2170037;81;20992;-83
2022/11/03 08:04:00;;;;;;;12.33;7.73;;;;;;;7.81;89.89;99571.48;2169541;82;21091;-82
2022/11/03 08:07:00;;;;;;;13.37;7.67;;;;;;;8.02;89.81;99564.41;2169827;81;20984;-83
2022/11/03 08:10:00;;;;;;;32.73;8.67;;;;;;;8.21;89.15;99556.80;2170162;81;21347;-83
2022/11/03 08:13:01;;;;;;;13.60;7.43;;;;;;;8.37;89.28;99553.00;2169174;81;21074;-82
2022/11/03 08:16:01;;;;;;;10.73;8.17;;;;;;;8.53;89.16;99553.95;2169593;81;21256;-84
2022/11/03 08:19:02;;;;;;;26.30;8.67;;;;;;;8.71;89.33;99559.75;2170201;81;21320;-81
2022/11/03 08:22:02;;;;;;;22.57;8.53;;;;;;;9.87;100.00;99553.94;2170852;81;21019;-82
2022/11/03 08:25:03;;;;;;;80.50;11.90;;;;;;;11.94;100.00;99548.12;2170384;81;21046;-83
2022/11/03 08:28:03;;;;;;;21.15;9.15;;;;;;;12.82;89.61;99545.17;2170147;81;21047;-83
2022/11/03 08:31:04;;;;;;;15.68;8.50;;;;;;;12.44;84.97;99542.44;2169801;81;21502;-83
2022/11/03 08:34:04;;;;;;;18.27;8.73;;;;;;;12.07;83.81;99540.94;2169552;81;21450;-81
2022/11/03 08:37:04;;;;;;;130.70;20.05;;;;;;;11.82;82.86;99540.06;2168598;81;21275;-84
2022/11/03 08:40:04;;;;;;;25.90;12.65;;;;;;;11.67;82.88;99535.83;2168787;81;21270;-84
2022/11/03 08:43:05;;;;;;;25.50;11.50;;;;;;;11.59;82.71;99536.11;2169581;81;21770;-83
2022/11/03 08:46:05;;;;;;;15.63;9.03;;;;;;;11.62;82.26;99536.16;2170003;81;21015;-83
2022/11/03 08:49:06;;;;;;;20.85;9.93;;;;;;;11.68;81.44;99527.13;2171568;81;20992;-83
2022/11/03 08:52:06;;;;;;;19.90;8.43;;;;;;;11.75;81.08;99527.27;2171893;81;20960;-84
2022/11/03 08:55:07;;;;;;;18.73;8.93;;;;;;;11.83;80.66;99527.44;2171470;81;21391;-84
2022/11/03 08:58:07;;;;;;;16.80;8.08;;;;;;;11.95;80.82;99526.77;2172044;81;21012;-83
2022/11/03 09:01:07;;;;;;;19.15;7.45;;;;;;;12.09;80.00;99524.83;2171397;81;20968;-83
2022/11/03 09:04:08;;;;;;;15.23;6.60;;;;;;;12.17;78.65;99514.95;2170499;81;21500;-84
2022/11/03 09:07:08;;;;;;;14.28;7.45;;;;;;;12.19;77.40;99518.05;2169901;81;20941;-83
2022/11/03 09:10:09;;;;;;;16.25;6.37;;;;;;;12.24;76.84;99513.77;2170127;81;21015;-82
2022/11/03 09:13:09;;;;;;;16.60;7.30;;;;;;;12.29;76.43;99516.02;2170291;81;21051;-83
2022/11/03 09:16:09;;;;;;;64.45;9.15;;;;;;;12.32;75.85;99513.45;2169092;82;21850;-82
2022/11/03 09:19:10;;;;;;;92.20;11.95;;;;;;;12.35;74.67;99512.63;2168336;81;20937;-83
2022/11/03 09:22:10;;;;;;;30.35;8.40;;;;;;;12.39;74.42;99515.73;2168173;81;20980;-81
2022/11/03 09:25:11;;;;;;;14.70;7.85;;;;;;;12.48;74.17;99515.88;2168329;81;20999;-83
2022/11/03 09:28:11;;;;;;;18.52;7.80;;;;;;;12.55;73.90;99509.87;2167910;80;21390;-84
2022/11/03 09:31:11;;;;;;;14.80;7.35;;;;;;;12.57;73.47;99505.53;2168231;81;21682;-82
2022/11/03 09:34:12;;;;;;;17.62;6.80;;;;;;;12.51;72.97;99503.25;2168095;81;21404;-82
2022/11/03 09:37:14;;;;;;;18.15;7.33;;;;;;;12.54;73.60;99504.17;2167967;82;20976;-80
2022/11/03 09:40:14;;;;;;;15.55;6.17;;;;;;;12.65;73.22;99499.97;2167819;81;21341;-80
2022/11/03 09:43:14;;;;;;;15.35;6.95;;;;;;;12.70;72.82;99495.67;2166729;80;21083;-81
2022/11/03 09:46:15;;;;;;;37.90;7.72;;;;;;;12.75;72.79;99491.81;2167200;82;20964;-83
2022/11/03 09:49:15;;;;;;;13.70;5.90;;;;;;;12.88;72.69;99493.73;2169021;81;21428;-81
2022/11/03 09:52:15;;;;;;;12.93;6.12;;;;;;;13.05;72.79;99485.67;2168903;81;20960;-82
2022/11/03 09:55:16;;;;;;;210.08;18.92;;;;;;;13.19;72.34;99487.19;2168459;81;21004;-82
2022/11/03 09:58:16;;;;;;;12.20;5.53;;;;;;;13.27;71.59;99477.66;2168845;81;21717;-81
2022/11/03 10:01:17;;;;;;;19.37;5.92;;;;;;;13.38;70.52;99472.53;2167840;81;21008;-82
2022/11/03 10:04:17;;;;;;;26.90;6.60;;;;;;;13.35;70.42;99465.52;2125913;83;20968;-83
2022/11/03 10:07:17;;;;;;;18.62;6.55;;;;;;;13.42;70.03;99459.02;2126212;84;21088;-81
2022/11/03 10:10:18;;;;;;;13.55;6.12;;;;;;;13.48;69.72;99461.27;2125938;84;20976;-81
2022/11/03 10:13:18;;;;;;;68.52;11.05;;;;;;;13.54;69.41;99454.78;2125108;84;21446;-76
2022/11/03 10:16:19;;;;;;;14.35;6.10;;;;;;;13.62;68.86;99447.86;2164336;81;21000;-81
2022/11/03 10:19:19;;;;;;;11.30;5.50;;;;;;;13.69;68.70;99443.55;2165238;81;21004;-82
2022/11/03 10:22:19;;;;;;;20.32;6.10;;;;;;;13.72;68.62;99435.70;2167416;81;21381;-82
2022/11/03 10:25:20;;;;;;;23.98;6.53;;;;;;;13.73;67.92;99429.59;2167934;82;21031;-81
2022/11/03 10:28:20;;;;;;;20.72;6.58;;;;;;;13.74;68.49;99422.59;2168124;81;20929;-82
2022/11/03 10:31:21;;;;;;;20.95;8.00;;;;;;;13.76;68.11;99419.13;2168087;82;20972;-80
2022/11/03 10:34:21;;;;;;;12.60;5.40;;;;;;;13.79;66.80;99412.59;2168788;81;20976;-81
2022/11/03 10:37:21;;;;;;;17.90;5.95;;;;;;;13.79;66.79;99403.41;2166773;81;20968;-81
2022/11/03 10:40:22;;;;;;;8.88;4.85;;;;;;;13.85;67.16;99403.88;2166398;81;21454;-81
2022/11/03 10:43:22;;;;;;;10.60;5.00;;;;;;;13.90;65.68;99398.27;2166779;81;21379;-81
2022/11/03 10:46:26;;;;;;;13.13;5.22;;;;;;;13.89;65.46;99399.13;2169308;81;20991;-82
2022/11/03 10:49:26;;;;;;;10.98;4.95;;;;;;;13.87;65.45;99396.50;2167924;81;20976;-81
2022/11/03 10:52:27;;;;;;;16.15;5.05;;;;;;;13.92;65.26;99400.47;2166839;81;20965;-81
2022/11/03 10:55:27;;;;;;;12.00;5.12;;;;;;;13.90;65.02;99393.89;2167232;81;20969;-80
2022/11/03 10:58:27;;;;;;;82.97;8.75;;;;;;;13.82;64.87;99385.06;2167587;81;20988;-82
2022/11/03 11:01:28;;;;;;;9.03;3.55;;;;;;;13.83;64.90;99384.19;2168434;81;21265;-80
2022/11/03 11:04:28;;;;;;;27.00;4.30;;;;;;;13.83;62.08;99377.63;2167301;82;20984;-81
2022/11/03 11:07:31;;;;;;;23.60;5.10;;;;;;;13.90;61.63;99379.89;2167826;82;21415;-81
2022/11/03 11:10:31;;;;;;;23.27;4.33;;;;;;;13.96;61.02;99380.81;2169286;81;21000;-82
2022/11/03 11:13:32;;;;;;;17.23;9.63;;;;;;;14.00;60.57;99374.72;2168377;81;21047;-81
2022/11/03 11:16:32;;;;;;;12.10;5.00;;;;;;;14.01;61.24;99365.09;2168429;81;21546;-81
2022/11/03 11:19:35;;;;;;;55.08;7.85;;;;;;;14.11;61.92;99359.47;2168049;82;20992;-81
2022/11/03 11:22:35;;;;;;;16.35;5.10;;;;;;;14.21;60.19;99353.40;2164907;82;21004;-81
2022/11/03 11:25:35;;;;;;;15.15;4.55;;;;;;;14.19;60.83;99349.89;2168464;81;20989;-81
2022/11/03 11:28:39;;;;;;;7.35;3.60;;;;;;;14.15;61.55;99346.37;2168154;81;20957;-81
2022/11/03 11:31:39;;;;;;;11.63;4.73;;;;;;;14.17;60.66;99339.81;2167817;82;20953;-82
2022/11/03 11:34:40;;;;;;;146.77;11.28;;;;;;;14.22;58.98;99335.47;2170731;81;21188;-81
2022/11/03 11:37:40;;;;;;;32.25;5.20;;;;;;;14.17;59.10;99325.38;2170068;81;21008;-82
2022/11/03 11:40:40;;;;;;;5.60;3.02;;;;;;;14.22;58.05;99324.96;2168777;82;20996;-81
2022/11/03 11:43:41;;;;;;;9.33;3.40;;;;;;;14.22;58.25;99327.59;2170511;81;21004;-83
2022/11/03 11:46:41;;;;;;;7.65;3.45;;;;;;;14.24;57.80;99321.91;2170394;81;20952;-79
2022/11/03 11:49:42;;;;;;;11.05;3.50;;;;;;;14.27;57.01;99315.36;2169199;81;20977;-82
2022/11/03 11:52:43;;;;;;;15.10;3.67;;;;;;;14.30;57.25;99312.74;2168635;81;21052;-82
2022/11/03 11:55:42;;;;;;;7.75;3.50;;;;;;;14.33;56.84;99299.19;2168204;81;20982;-83
2022/11/03 11:58:43;;;;;;;106.03;8.55;;;;;;;14.35;55.97;99298.77;2167958;81;21019;-82
2022/11/03 12:01:43;;;;;;;60.63;9.45;;;;;;;14.26;55.37;99295.22;2167684;81;20996;-82
2022/11/03 12:04:44;;;;;;;7.25;3.08;;;;;;;14.21;56.06;99282.08;2167666;81;21079;-83
2022/11/03 12:07:44;;;;;;;4.20;2.72;;;;;;;14.18;55.65;99275.94;2168654;81;20944;-82
2022/11/03 12:10:44;;;;;;;14.23;3.67;;;;;;;14.09;55.30;99275.89;2167851;81;20960;-82
2022/11/03 12:13:46;;;;;;;9.88;3.27;;;;;;;14.02;55.08;99267.11;2169160;81;21990;-81
2022/11/03 12:16:46;;;;;;;37.53;6.75;;;;;;;13.96;55.92;99267.09;2181922;81;21330;-84
2022/11/03 12:19:47;;;;;;;13.62;3.50;;;;;;;13.90;55.55;99255.24;2167929;81;20969;-83
2022/11/03 12:22:47;;;;;;;8.53;3.45;;;;;;;13.90;54.75;99253.50;2168115;81;21027;-84
2022/11/03 12:25:47;;;;;;;18.12;4.37;;;;;;;13.89;56.06;99249.12;2167682;81;20961;-82
2022/11/03 12:28:48;;;;;;;10.53;3.70;;;;;;;13.84;55.99;99242.94;2169652;81;21348;-81
2022/11/03 12:31:48;;;;;;;18.15;3.80;;;;;;;13.82;55.97;99244.67;2122914;83;21020;-82
2022/11/03 12:34:49;;;;;;;10.03;3.50;;;;;;;13.76;55.99;99248.58;2123854;83;21019;-81
2022/11/03 12:37:49;;;;;;;9.55;3.20;;;;;;;13.67;55.84;99241.97;2122947;83;21307;-82
2022/11/03 12:40:49;;;;;;;6.85;2.65;;;;;;;13.64;55.41;99245.45;2126062;83;20924;-81
2022/11/03 12:43:50;;;;;;;167.57;14.68;;;;;;;13.64;55.74;99240.64;2125391;83;21000;-82
2022/11/03 12:46:50;;;;;;;13.50;4.20;;;;;;;13.65;56.12;99231.91;2170527;81;20944;-81
2022/11/03 12:49:51;;;;;;;29.72;8.33;;;;;;;13.65;56.53;99226.66;2170427;81;20988;-81
2022/11/03 12:52:53;;;;;;;9.58;4.25;;;;;;;13.65;56.92;99217.48;2158000;82;21036;-81
2022/11/03 12:55:53;;;;;;;12.80;3.52;;;;;;;13.70;56.08;99215.75;2169694;81;20929;-79
2022/11/03 12:58:54;;;;;;;7.70;3.22;;;;;;;13.66;56.43;99213.98;2166852;81;20991;-77
2022/11/03 13:01:54;;;;;;;8.05;2.95;;;;;;;13.65;56.62;99215.73;2163796;82;21454;-76
2022/11/03 13:04:55;;;;;;;10.40;3.15;;;;;;;13.65;56.24;99206.98;2165728;81;21027;-77
2022/11/03 13:07:55;;;;;;;21.25;4.10;;;;;;;13.66;56.43;99204.37;2165007;81;20987;-77
2022/11/03 13:10:55;;;;;;;9.85;3.42;;;;;;;13.65;55.02;99199.11;2166100;81;20995;-80
2022/11/03 13:13:56;;;;;;;38.45;5.20;;;;;;;13.59;55.93;99200.39;2165843;81;21019;-81
2022/11/03 13:16:56;;;;;;;6.78;3.50;;;;;;;13.50;56.42;99199.91;2164224;81;21040;-82
2022/11/03 13:19:57;;;;;;;11.78;3.12;;;;;;;13.49;55.87;99198.59;2164828;81;21391;-81
2022/11/03 13:22:57;;;;;;;7.90;2.80;;;;;;;13.45;56.25;99192.45;2165110;81;20960;-80
2022/11/03 13:25:58;;;;;;;17.77;3.33;;;;;;;13.36;56.36;99191.96;2164756;81;21016;-79
2022/11/03 13:28:58;;;;;;;8.90;3.95;;;;;;;13.24;56.32;99190.57;2164897;81;21364;-81
2022/11/03 13:31:58;;;;;;;7.22;2.92;;;;;;;13.12;56.04;99182.59;2165401;81;20996;-80
2022/11/03 13:34:59;;;;;;;5.95;3.00;;;;;;;13.04;56.89;99176.42;2166973;81;20953;-81
2022/11/03 13:37:59;;;;;;;9.98;3.22;;;;;;;13.01;56.83;99168.53;2167566;81;21046;-80
2022/11/03 13:41:00;;;;;;;8.88;2.52;;;;;;;12.99;58.09;99166.30;2166597;81;21348;-81
2022/11/03 13:44:00;;;;;;;8.25;2.90;;;;;;;12.97;58.00;99162.36;2166535;81;21048;-82
2022/11/03 13:47:00;;;;;;;8.45;3.15;;;;;;;12.91;57.66;99158.82;2168232;81;21339;-82
2022/11/03 13:50:01;;;;;;;15.10;2.90;;;;;;;12.85;58.19;99158.34;2166735;81;20988;-83
2022/11/03 13:53:03;;;;;;;11.43;2.50;;;;;;;12.80;58.02;99161.79;2167639;81;21007;-84
2022/11/03 13:56:04;;;;;;;13.13;3.08;;;;;;;12.73;58.08;99153.88;2159223;82;21102;-82
2022/11/03 13:59:04;;;;;;;7.70;2.60;;;;;;;12.67;58.32;99160.81;2168186;81;21004;-82
2022/11/03 14:02:04;;;;;;;4.00;2.20;;;;;;;12.58;57.86;99158.99;2168289;81;20988;-83
2022/11/03 14:05:05;;;;;;;5.28;2.30;;;;;;;12.52;57.94;99158.06;2168702;81;21537;-82
2022/11/03 14:08:05;;;;;;;6.12;2.27;;;;;;;12.43;58.19;99159.73;2168636;81;21036;-83
2022/11/03 14:14:07;;;;;;;10.03;3.08;;;;;;;12.25;59.01;99153.02;2168782;81;22029;-83
2022/11/03 14:17:07;;;;;;;4.95;2.92;;;;;;;12.17;59.23;99154.67;2167620;81;21080;-82
2022/11/03 14:20:08;;;;;;;12.60;2.85;;;;;;;12.09;59.73;99152.38;2169550;81;20969;-82